Terminal Aerodrome Forecast
Issued by NWS Twin Cities, MN

Home | Current Version | Previous Version | Graphics & Text | Print | Product List | Glossary On
Versions: 1 2 3 4 5 6 7 8 9 10 11 12 13 14 15 16 17
000
FTUS43 KMPX 252045 AAA
TAFEAU
TAF AMD
KEAU 252045Z 2521/2618 33010KT P6SM BKN035
     FM260000 33006KT P6SM SCT040
     FM260900 01003KT P6SM SKC
      TEMPO 2609/2612 2SM BR
     FM261400 35006KT P6SM SKC=

USA.gov is the U.S. government's official web portal to all federal, state and local government web resources and services.